メインページ
METAR-TAF:

METAR-TAF

空港 :

フランクリン郡, バーモント州, アメリカ合衆国

緯度: 44-56-25N, 経度: 073-05-51W, 海抜: 69m

現時点の気象観測

当レポートは19分前の05:15(UTC)に作成
北東の風 9kt
気温 7°C
湿度 70%
気圧 1016 hPa
視程: 16.1km
高度8000ftの雲は散在している
高度9000ftの曇り

METAR: KFSO 040515Z AUTO 05009KT 10SM SCT080 OVC090 07/02 A3000 RMK AO2 T00700022

時間: 01:34 (05:34 UTC)


TAF: 見つかりません

4,000以上の空港の気象観測と天気予報(METAR報とTAF報)

利用可能な観測所は地図上に黄色い丸と赤い丸で示す。

丸の上にカーソルを重ねると観測所名を参照できる。

次にクリックすると気象観測と天気予報を参照できる。

マップの切り替え:黒色「×」印の緑ボタンをクリックして拡大、「-」印の緑ボタンをクリックして縮小、緑色の三角印をクリックして隣りの地図に切り替え


METAR-TAF: